sensor_id;sensor_type;location;lat;lon;timestamp;P1;durP1;ratioP1;P2;durP2;ratioP2
6105;SDS011;3083;51.508;7.966;2023-03-01T00:01:54;16.70;;;6.50;;
6105;SDS011;3083;51.508;7.966;2023-03-01T00:04:21;15.77;;;6.27;;
6105;SDS011;3083;51.508;7.966;2023-03-01T00:06:48;13.83;;;5.77;;
6105;SDS011;3083;51.508;7.966;2023-03-01T00:09:15;15.17;;;5.90;;
6105;SDS011;3083;51.508;7.966;2023-03-01T00:11:42;12.93;;;5.53;;
6105;SDS011;3083;51.508;7.966;2023-03-01T00:14:09;16.00;;;5.80;;
6105;SDS011;3083;51.508;7.966;2023-03-01T00:16:37;11.20;;;5.20;;
6105;SDS011;3083;51.508;7.966;2023-03-01T00:19:07;13.57;;;5.53;;
6105;SDS011;3083;51.508;7.966;2023-03-01T00:21:36;13.40;;;6.07;;
6105;SDS011;3083;51.508;7.966;2023-03-01T00:24:04;12.43;;;5.33;;
6105;SDS011;3083;51.508;7.966;2023-03-01T00:26:31;9.13;;;4.63;;
6105;SDS011;3083;51.508;7.966;2023-03-01T00:28:58;13.70;;;5.17;;
6105;SDS011;3083;51.508;7.966;2023-03-01T00:31:27;9.70;;;4.30;;
6105;SDS011;3083;51.508;7.966;2023-03-01T00:33:55;14.03;;;4.87;;
6105;SDS011;3083;51.508;7.966;2023-03-01T00:36:26;12.10;;;5.50;;
6105;SDS011;3083;51.508;7.966;2023-03-01T00:38:54;13.50;;;5.20;;
6105;SDS011;3083;51.508;7.966;2023-03-01T00:41:22;15.13;;;5.10;;
6105;SDS011;3083;51.508;7.966;2023-03-01T00:43:52;12.90;;;5.30;;
6105;SDS011;3083;51.508;7.966;2023-03-01T00:46:20;16.37;;;5.93;;
6105;SDS011;3083;51.508;7.966;2023-03-01T00:48:49;14.40;;;5.80;;
6105;SDS011;3083;51.508;7.966;2023-03-01T00:51:16;15.00;;;4.80;;
6105;SDS011;3083;51.508;7.966;2023-03-01T00:53:46;11.17;;;5.27;;
6105;SDS011;3083;51.508;7.966;2023-03-01T00:56:16;10.50;;;4.40;;
6105;SDS011;3083;51.508;7.966;2023-03-01T00:58:43;15.73;;;4.50;;
6105;SDS011;3083;51.508;7.966;2023-03-01T01:01:11;12.77;;;4.90;;
6105;SDS011;3083;51.508;7.966;2023-03-01T01:03:43;11.90;;;5.10;;
6105;SDS011;3083;51.508;7.966;2023-03-01T01:06:15;14.43;;;5.97;;
6105;SDS011;3083;51.508;7.966;2023-03-01T01:08:43;13.10;;;5.27;;
6105;SDS011;3083;51.508;7.966;2023-03-01T01:11:12;10.77;;;4.27;;
6105;SDS011;3083;51.508;7.966;2023-03-01T01:13:39;14.80;;;5.30;;
6105;SDS011;3083;51.508;7.966;2023-03-01T01:16:07;14.30;;;5.17;;
6105;SDS011;3083;51.508;7.966;2023-03-01T01:18:34;10.37;;;4.60;;
6105;SDS011;3083;51.508;7.966;2023-03-01T01:21:05;12.47;;;5.50;;
6105;SDS011;3083;51.508;7.966;2023-03-01T01:23:33;9.40;;;4.83;;
6105;SDS011;3083;51.508;7.966;2023-03-01T01:26:03;21.10;;;5.37;;
6105;SDS011;3083;51.508;7.966;2023-03-01T01:28:33;11.97;;;5.73;;
6105;SDS011;3083;51.508;7.966;2023-03-01T01:31:00;20.13;;;6.40;;
6105;SDS011;3083;51.508;7.966;2023-03-01T01:33:27;16.50;;;5.50;;
6105;SDS011;3083;51.508;7.966;2023-03-01T01:35:54;16.20;;;5.47;;
6105;SDS011;3083;51.508;7.966;2023-03-01T01:38:21;15.83;;;5.80;;
6105;SDS011;3083;51.508;7.966;2023-03-01T01:40:49;13.23;;;5.20;;
6105;SDS011;3083;51.508;7.966;2023-03-01T01:43:18;12.60;;;5.60;;
6105;SDS011;3083;51.508;7.966;2023-03-01T01:45:52;13.33;;;5.60;;
6105;SDS011;3083;51.508;7.966;2023-03-01T01:48:21;10.57;;;5.07;;
6105;SDS011;3083;51.508;7.966;2023-03-01T01:51:01;16.80;;;5.70;;
6105;SDS011;3083;51.508;7.966;2023-03-01T01:53:28;12.87;;;4.80;;
6105;SDS011;3083;51.508;7.966;2023-03-01T01:55:56;11.30;;;4.73;;
6105;SDS011;3083;51.508;7.966;2023-03-01T01:58:27;10.10;;;4.33;;
6105;SDS011;3083;51.508;7.966;2023-03-01T02:00:57;13.87;;;6.07;;
6105;SDS011;3083;51.508;7.966;2023-03-01T02:03:26;13.83;;;5.33;;
6105;SDS011;3083;51.508;7.966;2023-03-01T02:05:59;14.27;;;5.40;;
6105;SDS011;3083;51.508;7.966;2023-03-01T02:08:32;16.03;;;5.70;;
6105;SDS011;3083;51.508;7.966;2023-03-01T02:11:03;20.37;;;6.60;;
6105;SDS011;3083;51.508;7.966;2023-03-01T02:13:30;15.30;;;6.03;;
6105;SDS011;3083;51.508;7.966;2023-03-01T02:16:00;17.10;;;5.60;;
6105;SDS011;3083;51.508;7.966;2023-03-01T02:18:29;11.80;;;5.20;;
6105;SDS011;3083;51.508;7.966;2023-03-01T02:21:00;14.37;;;6.20;;
6105;SDS011;3083;51.508;7.966;2023-03-01T02:23:34;14.60;;;6.00;;
6105;SDS011;3083;51.508;7.966;2023-03-01T02:26:04;14.00;;;4.60;;
6105;SDS011;3083;51.508;7.966;2023-03-01T02:28:37;13.43;;;5.50;;
6105;SDS011;3083;51.508;7.966;2023-03-01T02:31:06;16.03;;;5.17;;
6105;SDS011;3083;51.508;7.966;2023-03-01T02:33:53;14.47;;;5.93;;
6105;SDS011;3083;51.508;7.966;2023-03-01T02:36:21;19.70;;;6.13;;
6105;SDS011;3083;51.508;7.966;2023-03-01T02:38:51;13.03;;;5.57;;
6105;SDS011;3083;51.508;7.966;2023-03-01T02:41:22;11.23;;;5.90;;
6105;SDS011;3083;51.508;7.966;2023-03-01T02:43:53;36.37;;;6.97;;
6105;SDS011;3083;51.508;7.966;2023-03-01T02:46:22;18.07;;;5.37;;
6105;SDS011;3083;51.508;7.966;2023-03-01T02:48:51;12.00;;;5.00;;
6105;SDS011;3083;51.508;7.966;2023-03-01T02:51:26;17.27;;;6.00;;
6105;SDS011;3083;51.508;7.966;2023-03-01T02:54:14;19.47;;;6.70;;
6105;SDS011;3083;51.508;7.966;2023-03-01T02:56:47;18.07;;;6.50;;
6105;SDS011;3083;51.508;7.966;2023-03-01T02:59:17;21.00;;;6.30;;
6105;SDS011;3083;51.508;7.966;2023-03-01T03:01:48;14.30;;;6.50;;
6105;SDS011;3083;51.508;7.966;2023-03-01T03:04:16;14.83;;;5.50;;
6105;SDS011;3083;51.508;7.966;2023-03-01T03:06:44;15.07;;;5.90;;
6105;SDS011;3083;51.508;7.966;2023-03-01T03:09:12;12.70;;;5.63;;
6105;SDS011;3083;51.508;7.966;2023-03-01T03:11:40;13.37;;;5.33;;
6105;SDS011;3083;51.508;7.966;2023-03-01T03:14:08;19.90;;;6.80;;
6105;SDS011;3083;51.508;7.966;2023-03-01T03:16:40;16.47;;;6.60;;
6105;SDS011;3083;51.508;7.966;2023-03-01T03:19:08;17.70;;;6.73;;
6105;SDS011;3083;51.508;7.966;2023-03-01T03:21:35;15.67;;;6.63;;
6105;SDS011;3083;51.508;7.966;2023-03-01T03:24:03;10.70;;;5.23;;
6105;SDS011;3083;51.508;7.966;2023-03-01T03:26:30;12.47;;;5.47;;
6105;SDS011;3083;51.508;7.966;2023-03-01T03:28:58;16.20;;;5.00;;
6105;SDS011;3083;51.508;7.966;2023-03-01T03:31:25;14.97;;;5.30;;
6105;SDS011;3083;51.508;7.966;2023-03-01T03:33:53;17.23;;;5.93;;
6105;SDS011;3083;51.508;7.966;2023-03-01T03:36:22;15.30;;;6.00;;
6105;SDS011;3083;51.508;7.966;2023-03-01T03:38:50;13.03;;;4.67;;
6105;SDS011;3083;51.508;7.966;2023-03-01T03:41:17;13.57;;;5.37;;
6105;SDS011;3083;51.508;7.966;2023-03-01T03:43:44;12.47;;;5.27;;
6105;SDS011;3083;51.508;7.966;2023-03-01T03:46:11;18.67;;;5.40;;
6105;SDS011;3083;51.508;7.966;2023-03-01T03:48:39;11.37;;;4.87;;
6105;SDS011;3083;51.508;7.966;2023-03-01T03:51:10;12.73;;;5.40;;
6105;SDS011;3083;51.508;7.966;2023-03-01T03:53:39;12.27;;;5.20;;
6105;SDS011;3083;51.508;7.966;2023-03-01T03:56:06;15.07;;;5.57;;
6105;SDS011;3083;51.508;7.966;2023-03-01T03:58:33;18.93;;;5.60;;
6105;SDS011;3083;51.508;7.966;2023-03-01T04:01:01;15.17;;;6.07;;
6105;SDS011;3083;51.508;7.966;2023-03-01T04:03:29;14.10;;;5.70;;
6105;SDS011;3083;51.508;7.966;2023-03-01T04:05:57;16.93;;;6.10;;
6105;SDS011;3083;51.508;7.966;2023-03-01T04:08:26;14.37;;;4.90;;
6105;SDS011;3083;51.508;7.966;2023-03-01T04:10:56;13.37;;;5.50;;
6105;SDS011;3083;51.508;7.966;2023-03-01T04:13:25;14.97;;;5.03;;
6105;SDS011;3083;51.508;7.966;2023-03-01T04:15:53;12.73;;;5.73;;
6105;SDS011;3083;51.508;7.966;2023-03-01T04:18:21;15.30;;;4.97;;
6105;SDS011;3083;51.508;7.966;2023-03-01T04:20:49;12.93;;;5.60;;
6105;SDS011;3083;51.508;7.966;2023-03-01T04:23:20;15.73;;;5.97;;
6105;SDS011;3083;51.508;7.966;2023-03-01T04:25:50;13.30;;;5.10;;
6105;SDS011;3083;51.508;7.966;2023-03-01T04:28:19;12.00;;;4.50;;
6105;SDS011;3083;51.508;7.966;2023-03-01T04:30:47;10.90;;;4.27;;
6105;SDS011;3083;51.508;7.966;2023-03-01T04:33:14;10.37;;;4.73;;
6105;SDS011;3083;51.508;7.966;2023-03-01T04:35:40;11.67;;;5.13;;
6105;SDS011;3083;51.508;7.966;2023-03-01T04:38:08;13.37;;;5.70;;
6105;SDS011;3083;51.508;7.966;2023-03-01T04:40:35;12.70;;;5.00;;
6105;SDS011;3083;51.508;7.966;2023-03-01T04:43:04;17.20;;;5.33;;
6105;SDS011;3083;51.508;7.966;2023-03-01T04:45:31;11.77;;;5.27;;
6105;SDS011;3083;51.508;7.966;2023-03-01T04:47:59;16.77;;;6.00;;
6105;SDS011;3083;51.508;7.966;2023-03-01T04:50:26;17.80;;;6.20;;
6105;SDS011;3083;51.508;7.966;2023-03-01T04:52:54;11.87;;;5.40;;
6105;SDS011;3083;51.508;7.966;2023-03-01T04:55:23;9.87;;;4.87;;
6105;SDS011;3083;51.508;7.966;2023-03-01T04:57:51;9.10;;;4.30;;
6105;SDS011;3083;51.508;7.966;2023-03-01T05:00:20;16.80;;;4.87;;
6105;SDS011;3083;51.508;7.966;2023-03-01T05:02:48;13.00;;;5.00;;
6105;SDS011;3083;51.508;7.966;2023-03-01T05:05:21;16.83;;;4.67;;
6105;SDS011;3083;51.508;7.966;2023-03-01T05:07:52;11.57;;;5.90;;
6105;SDS011;3083;51.508;7.966;2023-03-01T05:10:20;16.20;;;5.00;;
6105;SDS011;3083;51.508;7.966;2023-03-01T05:12:47;13.80;;;5.20;;
6105;SDS011;3083;51.508;7.966;2023-03-01T05:15:14;10.63;;;5.13;;
6105;SDS011;3083;51.508;7.966;2023-03-01T05:17:43;15.10;;;5.20;;
6105;SDS011;3083;51.508;7.966;2023-03-01T05:20:11;16.30;;;5.70;;
6105;SDS011;3083;51.508;7.966;2023-03-01T05:22:38;12.83;;;5.47;;
6105;SDS011;3083;51.508;7.966;2023-03-01T05:25:05;10.10;;;5.13;;
6105;SDS011;3083;51.508;7.966;2023-03-01T05:27:33;10.67;;;3.97;;
6105;SDS011;3083;51.508;7.966;2023-03-01T05:30:01;13.33;;;4.90;;
6105;SDS011;3083;51.508;7.966;2023-03-01T05:32:38;13.67;;;5.03;;
6105;SDS011;3083;51.508;7.966;2023-03-01T05:35:08;14.10;;;5.27;;
6105;SDS011;3083;51.508;7.966;2023-03-01T05:37:38;14.90;;;5.20;;
6105;SDS011;3083;51.508;7.966;2023-03-01T05:40:07;21.63;;;4.77;;
6105;SDS011;3083;51.508;7.966;2023-03-01T05:42:41;13.37;;;4.87;;
6105;SDS011;3083;51.508;7.966;2023-03-01T05:45:09;12.73;;;4.83;;
6105;SDS011;3083;51.508;7.966;2023-03-01T05:47:40;15.37;;;5.80;;
6105;SDS011;3083;51.508;7.966;2023-03-01T05:50:12;14.20;;;4.17;;
6105;SDS011;3083;51.508;7.966;2023-03-01T05:52:43;13.10;;;5.83;;
6105;SDS011;3083;51.508;7.966;2023-03-01T05:55:11;15.17;;;4.90;;
6105;SDS011;3083;51.508;7.966;2023-03-01T05:57:38;10.80;;;5.63;;
6105;SDS011;3083;51.508;7.966;2023-03-01T06:00:06;12.43;;;5.30;;
6105;SDS011;3083;51.508;7.966;2023-03-01T06:02:34;13.07;;;4.17;;
6105;SDS011;3083;51.508;7.966;2023-03-01T06:05:01;13.80;;;5.10;;
6105;SDS011;3083;51.508;7.966;2023-03-01T06:07:29;11.80;;;4.70;;
6105;SDS011;3083;51.508;7.966;2023-03-01T06:09:56;12.27;;;5.07;;
6105;SDS011;3083;51.508;7.966;2023-03-01T06:12:23;9.73;;;3.67;;
6105;SDS011;3083;51.508;7.966;2023-03-01T06:14:50;11.73;;;5.07;;
6105;SDS011;3083;51.508;7.966;2023-03-01T06:17:16;12.90;;;4.80;;
6105;SDS011;3083;51.508;7.966;2023-03-01T06:19:43;10.83;;;4.50;;
6105;SDS011;3083;51.508;7.966;2023-03-01T06:22:10;12.97;;;5.60;;
6105;SDS011;3083;51.508;7.966;2023-03-01T06:24:38;12.30;;;4.70;;
6105;SDS011;3083;51.508;7.966;2023-03-01T06:27:05;17.63;;;5.20;;
6105;SDS011;3083;51.508;7.966;2023-03-01T06:29:33;16.20;;;5.50;;
6105;SDS011;3083;51.508;7.966;2023-03-01T06:32:00;12.67;;;5.00;;
6105;SDS011;3083;51.508;7.966;2023-03-01T06:34:28;15.87;;;5.60;;
6105;SDS011;3083;51.508;7.966;2023-03-01T06:36:55;16.13;;;5.67;;
6105;SDS011;3083;51.508;7.966;2023-03-01T06:39:22;12.63;;;4.73;;
6105;SDS011;3083;51.508;7.966;2023-03-01T06:41:50;10.40;;;5.13;;
6105;SDS011;3083;51.508;7.966;2023-03-01T06:44:17;11.63;;;5.00;;
6105;SDS011;3083;51.508;7.966;2023-03-01T06:46:44;18.53;;;6.40;;
6105;SDS011;3083;51.508;7.966;2023-03-01T06:49:11;14.87;;;5.43;;
6105;SDS011;3083;51.508;7.966;2023-03-01T06:51:38;10.20;;;4.43;;
6105;SDS011;3083;51.508;7.966;2023-03-01T06:54:05;10.60;;;4.77;;
6105;SDS011;3083;51.508;7.966;2023-03-01T06:56:32;17.37;;;6.30;;
6105;SDS011;3083;51.508;7.966;2023-03-01T06:59:01;19.33;;;7.17;;
6105;SDS011;3083;51.508;7.966;2023-03-01T07:01:28;19.30;;;7.50;;
6105;SDS011;3083;51.508;7.966;2023-03-01T07:03:55;18.53;;;7.03;;
6105;SDS011;3083;51.508;7.966;2023-03-01T07:06:23;30.63;;;9.80;;
6105;SDS011;3083;51.508;7.966;2023-03-01T07:08:50;28.57;;;10.10;;
6105;SDS011;3083;51.508;7.966;2023-03-01T07:11:16;30.33;;;10.80;;
6105;SDS011;3083;51.508;7.966;2023-03-01T07:13:43;26.77;;;11.00;;
6105;SDS011;3083;51.508;7.966;2023-03-01T07:16:11;27.40;;;10.50;;
6105;SDS011;3083;51.508;7.966;2023-03-01T07:18:39;23.67;;;9.90;;
6105;SDS011;3083;51.508;7.966;2023-03-01T07:21:06;25.07;;;9.50;;
6105;SDS011;3083;51.508;7.966;2023-03-01T07:23:34;20.97;;;9.43;;
6105;SDS011;3083;51.508;7.966;2023-03-01T07:26:01;17.90;;;7.23;;
6105;SDS011;3083;51.508;7.966;2023-03-01T07:28:28;18.47;;;6.50;;
6105;SDS011;3083;51.508;7.966;2023-03-01T07:31:00;16.60;;;7.33;;
6105;SDS011;3083;51.508;7.966;2023-03-01T07:33:28;17.03;;;7.00;;
6105;SDS011;3083;51.508;7.966;2023-03-01T07:35:56;19.67;;;6.97;;
6105;SDS011;3083;51.508;7.966;2023-03-01T07:38:24;16.27;;;7.57;;
6105;SDS011;3083;51.508;7.966;2023-03-01T07:40:51;17.23;;;7.43;;
6105;SDS011;3083;51.508;7.966;2023-03-01T07:43:18;17.27;;;7.03;;
6105;SDS011;3083;51.508;7.966;2023-03-01T07:45:45;17.00;;;7.60;;
6105;SDS011;3083;51.508;7.966;2023-03-01T07:48:12;21.30;;;8.27;;
6105;SDS011;3083;51.508;7.966;2023-03-01T07:50:40;22.37;;;10.27;;
6105;SDS011;3083;51.508;7.966;2023-03-01T07:53:08;23.10;;;9.50;;
6105;SDS011;3083;51.508;7.966;2023-03-01T07:55:35;19.53;;;7.90;;
6105;SDS011;3083;51.508;7.966;2023-03-01T07:58:02;20.37;;;8.40;;
6105;SDS011;3083;51.508;7.966;2023-03-01T08:00:29;17.87;;;7.73;;
6105;SDS011;3083;51.508;7.966;2023-03-01T08:02:58;14.33;;;7.73;;
6105;SDS011;3083;51.508;7.966;2023-03-01T08:05:26;18.47;;;8.40;;
6105;SDS011;3083;51.508;7.966;2023-03-01T08:07:54;15.17;;;7.27;;
6105;SDS011;3083;51.508;7.966;2023-03-01T08:10:21;12.27;;;6.20;;
6105;SDS011;3083;51.508;7.966;2023-03-01T08:12:50;15.47;;;7.33;;
6105;SDS011;3083;51.508;7.966;2023-03-01T08:15:18;15.40;;;7.03;;
6105;SDS011;3083;51.508;7.966;2023-03-01T08:17:45;13.87;;;7.30;;
6105;SDS011;3083;51.508;7.966;2023-03-01T08:20:16;15.70;;;8.17;;
6105;SDS011;3083;51.508;7.966;2023-03-01T08:22:43;12.60;;;6.90;;
6105;SDS011;3083;51.508;7.966;2023-03-01T08:25:11;12.60;;;6.87;;
6105;SDS011;3083;51.508;7.966;2023-03-01T08:27:38;15.10;;;7.17;;
6105;SDS011;3083;51.508;7.966;2023-03-01T08:30:05;13.17;;;6.53;;
6105;SDS011;3083;51.508;7.966;2023-03-01T08:32:35;15.93;;;7.50;;
6105;SDS011;3083;51.508;7.966;2023-03-01T08:35:03;11.70;;;6.93;;
6105;SDS011;3083;51.508;7.966;2023-03-01T08:37:31;9.53;;;5.40;;
6105;SDS011;3083;51.508;7.966;2023-03-01T08:39:58;13.13;;;6.00;;
6105;SDS011;3083;51.508;7.966;2023-03-01T08:42:26;15.87;;;7.03;;
6105;SDS011;3083;51.508;7.966;2023-03-01T08:44:53;14.30;;;7.10;;
6105;SDS011;3083;51.508;7.966;2023-03-01T08:47:21;12.93;;;6.80;;
6105;SDS011;3083;51.508;7.966;2023-03-01T08:49:49;14.07;;;7.33;;
6105;SDS011;3083;51.508;7.966;2023-03-01T08:52:16;13.50;;;7.50;;
6105;SDS011;3083;51.508;7.966;2023-03-01T08:54:43;15.90;;;7.37;;
6105;SDS011;3083;51.508;7.966;2023-03-01T08:57:09;14.83;;;6.90;;
6105;SDS011;3083;51.508;7.966;2023-03-01T08:59:39;15.20;;;7.03;;
6105;SDS011;3083;51.508;7.966;2023-03-01T09:02:10;18.20;;;9.10;;
6105;SDS011;3083;51.508;7.966;2023-03-01T09:04:39;18.70;;;8.47;;
6105;SDS011;3083;51.508;7.966;2023-03-01T09:07:06;15.70;;;8.30;;
6105;SDS011;3083;51.508;7.966;2023-03-01T09:09:34;16.30;;;8.97;;
6105;SDS011;3083;51.508;7.966;2023-03-01T09:12:02;24.20;;;8.90;;
6105;SDS011;3083;51.508;7.966;2023-03-01T09:14:29;21.33;;;9.43;;
6105;SDS011;3083;51.508;7.966;2023-03-01T09:16:58;19.93;;;8.47;;
6105;SDS011;3083;51.508;7.966;2023-03-01T09:19:27;18.60;;;8.97;;
6105;SDS011;3083;51.508;7.966;2023-03-01T09:21:54;20.80;;;9.60;;
6105;SDS011;3083;51.508;7.966;2023-03-01T09:24:23;14.37;;;7.10;;
6105;SDS011;3083;51.508;7.966;2023-03-01T09:26:52;20.80;;;9.63;;
6105;SDS011;3083;51.508;7.966;2023-03-01T09:29:20;17.97;;;8.60;;
6105;SDS011;3083;51.508;7.966;2023-03-01T09:31:47;17.17;;;8.50;;
6105;SDS011;3083;51.508;7.966;2023-03-01T09:34:15;18.83;;;7.97;;
6105;SDS011;3083;51.508;7.966;2023-03-01T09:36:48;19.17;;;9.20;;
6105;SDS011;3083;51.508;7.966;2023-03-01T09:39:15;11.97;;;6.77;;
6105;SDS011;3083;51.508;7.966;2023-03-01T09:41:44;20.83;;;8.00;;
6105;SDS011;3083;51.508;7.966;2023-03-01T09:44:16;14.93;;;6.20;;
6105;SDS011;3083;51.508;7.966;2023-03-01T09:46:56;13.50;;;5.83;;
6105;SDS011;3083;51.508;7.966;2023-03-01T09:49:25;10.83;;;5.13;;
6105;SDS011;3083;51.508;7.966;2023-03-01T09:51:57;15.07;;;5.37;;
6105;SDS011;3083;51.508;7.966;2023-03-01T09:54:26;14.70;;;5.90;;
6105;SDS011;3083;51.508;7.966;2023-03-01T09:56:57;15.40;;;6.93;;
6105;SDS011;3083;51.508;7.966;2023-03-01T09:59:31;11.93;;;6.23;;
6105;SDS011;3083;51.508;7.966;2023-03-01T10:02:14;13.93;;;7.00;;
6105;SDS011;3083;51.508;7.966;2023-03-01T10:04:49;16.13;;;5.90;;
6105;SDS011;3083;51.508;7.966;2023-03-01T10:07:25;16.43;;;6.37;;
6105;SDS011;3083;51.508;7.966;2023-03-01T10:09:59;17.93;;;7.63;;
6105;SDS011;3083;51.508;7.966;2023-03-01T10:12:31;15.97;;;7.67;;
6105;SDS011;3083;51.508;7.966;2023-03-01T10:15:02;10.70;;;5.00;;
6105;SDS011;3083;51.508;7.966;2023-03-01T10:17:36;17.73;;;8.00;;
6105;SDS011;3083;51.508;7.966;2023-03-01T10:20:13;10.30;;;5.17;;
6105;SDS011;3083;51.508;7.966;2023-03-01T10:22:43;14.93;;;6.97;;
6105;SDS011;3083;51.508;7.966;2023-03-01T10:25:15;14.60;;;7.60;;
6105;SDS011;3083;51.508;7.966;2023-03-01T10:27:49;13.53;;;5.70;;
6105;SDS011;3083;51.508;7.966;2023-03-01T10:30:19;11.40;;;5.27;;
6105;SDS011;3083;51.508;7.966;2023-03-01T10:32:49;13.40;;;6.80;;
6105;SDS011;3083;51.508;7.966;2023-03-01T10:35:21;15.03;;;6.57;;
6105;SDS011;3083;51.508;7.966;2023-03-01T10:38:02;13.63;;;7.40;;
6105;SDS011;3083;51.508;7.966;2023-03-01T10:40:30;18.37;;;6.10;;
6105;SDS011;3083;51.508;7.966;2023-03-01T10:42:58;13.93;;;5.60;;
6105;SDS011;3083;51.508;7.966;2023-03-01T10:45:32;11.10;;;5.60;;
6105;SDS011;3083;51.508;7.966;2023-03-01T10:48:11;13.80;;;6.43;;
6105;SDS011;3083;51.508;7.966;2023-03-01T10:50:41;10.10;;;4.40;;
6105;SDS011;3083;51.508;7.966;2023-03-01T10:55:57;14.00;;;6.73;;
6105;SDS011;3083;51.508;7.966;2023-03-01T10:58:27;15.37;;;7.07;;
6105;SDS011;3083;51.508;7.966;2023-03-01T11:00:55;12.47;;;5.83;;
6105;SDS011;3083;51.508;7.966;2023-03-01T11:03:23;13.23;;;6.60;;
6105;SDS011;3083;51.508;7.966;2023-03-01T11:05:55;12.33;;;6.20;;
6105;SDS011;3083;51.508;7.966;2023-03-01T11:08:46;15.00;;;6.50;;
6105;SDS011;3083;51.508;7.966;2023-03-01T11:11:30;16.00;;;6.67;;
6105;SDS011;3083;51.508;7.966;2023-03-01T11:13:59;15.67;;;7.00;;
6105;SDS011;3083;51.508;7.966;2023-03-01T11:16:31;15.30;;;5.90;;
6105;SDS011;3083;51.508;7.966;2023-03-01T11:19:17;14.83;;;7.30;;
6105;SDS011;3083;51.508;7.966;2023-03-01T11:22:01;10.03;;;5.33;;
6105;SDS011;3083;51.508;7.966;2023-03-01T11:24:39;14.63;;;6.90;;
6105;SDS011;3083;51.508;7.966;2023-03-01T11:27:12;6.63;;;3.53;;
6105;SDS011;3083;51.508;7.966;2023-03-01T11:29:44;14.20;;;6.90;;
6105;SDS011;3083;51.508;7.966;2023-03-01T11:32:16;12.67;;;7.10;;
6105;SDS011;3083;51.508;7.966;2023-03-01T11:34:45;12.97;;;5.90;;
6105;SDS011;3083;51.508;7.966;2023-03-01T11:37:19;13.97;;;5.73;;
6105;SDS011;3083;51.508;7.966;2023-03-01T11:39:54;14.87;;;7.00;;
6105;SDS011;3083;51.508;7.966;2023-03-01T11:42:28;10.67;;;4.40;;
6105;SDS011;3083;51.508;7.966;2023-03-01T11:45:11;13.37;;;5.30;;
6105;SDS011;3083;51.508;7.966;2023-03-01T11:47:45;13.30;;;5.30;;
6105;SDS011;3083;51.508;7.966;2023-03-01T11:50:34;17.47;;;7.10;;
6105;SDS011;3083;51.508;7.966;2023-03-01T11:56:09;9.97;;;4.63;;
6105;SDS011;3083;51.508;7.966;2023-03-01T11:58:49;7.67;;;3.10;;
6105;SDS011;3083;51.508;7.966;2023-03-01T12:01:52;13.57;;;5.10;;
6105;SDS011;3083;51.508;7.966;2023-03-01T12:04:36;12.23;;;5.50;;
6105;SDS011;3083;51.508;7.966;2023-03-01T12:07:25;19.13;;;5.50;;
6105;SDS011;3083;51.508;7.966;2023-03-01T12:10:17;12.23;;;5.60;;
6105;SDS011;3083;51.508;7.966;2023-03-01T12:12:52;11.33;;;5.67;;
6105;SDS011;3083;51.508;7.966;2023-03-01T12:18:27;12.53;;;5.50;;
6105;SDS011;3083;51.508;7.966;2023-03-01T12:21:02;14.30;;;6.40;;
6105;SDS011;3083;51.508;7.966;2023-03-01T12:23:47;8.90;;;3.80;;
6105;SDS011;3083;51.508;7.966;2023-03-01T12:26:28;9.33;;;4.27;;
6105;SDS011;3083;51.508;7.966;2023-03-01T12:29:10;12.47;;;6.30;;
6105;SDS011;3083;51.508;7.966;2023-03-01T12:31:57;14.60;;;7.07;;
6105;SDS011;3083;51.508;7.966;2023-03-01T12:34:41;15.50;;;5.67;;
6105;SDS011;3083;51.508;7.966;2023-03-01T12:37:22;10.57;;;4.53;;
6105;SDS011;3083;51.508;7.966;2023-03-01T12:42:57;17.00;;;6.27;;
6105;SDS011;3083;51.508;7.966;2023-03-01T12:45:38;17.73;;;7.17;;
6105;SDS011;3083;51.508;7.966;2023-03-01T12:48:23;12.90;;;5.83;;
6105;SDS011;3083;51.508;7.966;2023-03-01T12:50:57;7.30;;;3.57;;
6105;SDS011;3083;51.508;7.966;2023-03-01T12:53:29;12.53;;;6.17;;
6105;SDS011;3083;51.508;7.966;2023-03-01T12:56:02;11.23;;;4.20;;
6105;SDS011;3083;51.508;7.966;2023-03-01T12:58:36;10.50;;;5.03;;
6105;SDS011;3083;51.508;7.966;2023-03-01T13:01:11;12.70;;;6.00;;
6105;SDS011;3083;51.508;7.966;2023-03-01T13:03:52;8.60;;;4.47;;
6105;SDS011;3083;51.508;7.966;2023-03-01T13:06:29;13.00;;;6.10;;
6105;SDS011;3083;51.508;7.966;2023-03-01T13:09:04;11.57;;;5.87;;
6105;SDS011;3083;51.508;7.966;2023-03-01T13:11:40;10.27;;;5.07;;
6105;SDS011;3083;51.508;7.966;2023-03-01T13:17:20;9.40;;;5.17;;
6105;SDS011;3083;51.508;7.966;2023-03-01T13:19:57;8.40;;;4.03;;
6105;SDS011;3083;51.508;7.966;2023-03-01T13:22:26;13.17;;;5.90;;
6105;SDS011;3083;51.508;7.966;2023-03-01T13:25:11;12.23;;;6.10;;
6105;SDS011;3083;51.508;7.966;2023-03-01T13:27:41;6.83;;;3.70;;
6105;SDS011;3083;51.508;7.966;2023-03-01T13:36:07;9.37;;;4.60;;
6105;SDS011;3083;51.508;7.966;2023-03-01T13:38:41;13.43;;;6.27;;
6105;SDS011;3083;51.508;7.966;2023-03-01T13:41:12;10.63;;;5.17;;
6105;SDS011;3083;51.508;7.966;2023-03-01T13:43:40;10.83;;;3.97;;
6105;SDS011;3083;51.508;7.966;2023-03-01T13:46:09;11.47;;;5.00;;
6105;SDS011;3083;51.508;7.966;2023-03-01T13:48:42;11.40;;;5.00;;
6105;SDS011;3083;51.508;7.966;2023-03-01T13:51:12;9.97;;;4.97;;
6105;SDS011;3083;51.508;7.966;2023-03-01T13:53:40;8.00;;;2.80;;
6105;SDS011;3083;51.508;7.966;2023-03-01T13:56:11;6.87;;;2.87;;
6105;SDS011;3083;51.508;7.966;2023-03-01T13:58:44;7.27;;;4.03;;
6105;SDS011;3083;51.508;7.966;2023-03-01T14:01:20;11.27;;;5.80;;
6105;SDS011;3083;51.508;7.966;2023-03-01T14:03:49;10.17;;;4.47;;
6105;SDS011;3083;51.508;7.966;2023-03-01T14:06:19;9.00;;;3.60;;
6105;SDS011;3083;51.508;7.966;2023-03-01T14:08:48;7.80;;;4.20;;
6105;SDS011;3083;51.508;7.966;2023-03-01T14:11:21;13.63;;;4.83;;
6105;SDS011;3083;51.508;7.966;2023-03-01T14:14:31;12.17;;;5.10;;
6105;SDS011;3083;51.508;7.966;2023-03-01T14:17:16;13.33;;;5.37;;
6105;SDS011;3083;51.508;7.966;2023-03-01T14:19:58;9.10;;;4.10;;
6105;SDS011;3083;51.508;7.966;2023-03-01T14:22:32;5.17;;;2.50;;
6105;SDS011;3083;51.508;7.966;2023-03-01T14:25:01;11.27;;;5.50;;
6105;SDS011;3083;51.508;7.966;2023-03-01T14:27:32;10.53;;;4.40;;
6105;SDS011;3083;51.508;7.966;2023-03-01T14:30:10;9.30;;;4.63;;
6105;SDS011;3083;51.508;7.966;2023-03-01T14:32:40;8.80;;;4.63;;
6105;SDS011;3083;51.508;7.966;2023-03-01T14:35:18;7.53;;;3.87;;
6105;SDS011;3083;51.508;7.966;2023-03-01T14:37:48;11.37;;;4.73;;
6105;SDS011;3083;51.508;7.966;2023-03-01T14:40:26;10.37;;;4.63;;
6105;SDS011;3083;51.508;7.966;2023-03-01T14:42:54;11.00;;;5.47;;
6105;SDS011;3083;51.508;7.966;2023-03-01T14:45:24;12.20;;;5.43;;
6105;SDS011;3083;51.508;7.966;2023-03-01T14:47:53;12.13;;;5.50;;
6105;SDS011;3083;51.508;7.966;2023-03-01T14:50:23;7.60;;;3.33;;
6105;SDS011;3083;51.508;7.966;2023-03-01T14:52:54;12.20;;;5.00;;
6105;SDS011;3083;51.508;7.966;2023-03-01T14:55:26;10.17;;;4.40;;
6105;SDS011;3083;51.508;7.966;2023-03-01T14:57:56;10.73;;;5.20;;
6105;SDS011;3083;51.508;7.966;2023-03-01T15:00:24;9.87;;;4.37;;
6105;SDS011;3083;51.508;7.966;2023-03-01T15:02:54;13.80;;;4.20;;
6105;SDS011;3083;51.508;7.966;2023-03-01T15:05:24;10.60;;;5.27;;
6105;SDS011;3083;51.508;7.966;2023-03-01T15:07:56;12.00;;;5.13;;
6105;SDS011;3083;51.508;7.966;2023-03-01T15:10:26;10.93;;;5.20;;
6105;SDS011;3083;51.508;7.966;2023-03-01T15:12:54;11.70;;;5.00;;
6105;SDS011;3083;51.508;7.966;2023-03-01T15:15:35;8.57;;;3.57;;
6105;SDS011;3083;51.508;7.966;2023-03-01T15:18:06;10.47;;;5.00;;
6105;SDS011;3083;51.508;7.966;2023-03-01T15:20:42;11.40;;;4.10;;
6105;SDS011;3083;51.508;7.966;2023-03-01T15:25:53;9.70;;;4.80;;
6105;SDS011;3083;51.508;7.966;2023-03-01T15:28:25;11.10;;;5.57;;
6105;SDS011;3083;51.508;7.966;2023-03-01T15:30:55;10.60;;;5.00;;
6105;SDS011;3083;51.508;7.966;2023-03-01T15:33:32;8.40;;;3.80;;
6105;SDS011;3083;51.508;7.966;2023-03-01T15:36:04;12.23;;;4.40;;
6105;SDS011;3083;51.508;7.966;2023-03-01T15:38:59;10.60;;;4.77;;
6105;SDS011;3083;51.508;7.966;2023-03-01T15:41:27;12.10;;;5.20;;
6105;SDS011;3083;51.508;7.966;2023-03-01T15:43:57;12.70;;;5.40;;
6105;SDS011;3083;51.508;7.966;2023-03-01T15:46:25;7.20;;;3.00;;
6105;SDS011;3083;51.508;7.966;2023-03-01T15:48:55;8.40;;;4.30;;